Rechercher aéroport 
image banner adimage banner adimage banner ad
image banner ad

82CA - Sce Moorpark Substation

Situé à Moorpark, United States

ICAO - 82CA, IATA -

Données fournies par Airmate  

Information générale

Coordonnées: N34°16'55" W118°54'16"
Élévation : 470 feet MSL.
Variation magnétique : 14° East
Voir autres Aéroports à California

Données opérationnelles

Special qualification required
Heure actuelle UTC:
Heure actuelle locale:
Météo à : KCMA - Camarillo ( 19 km )
METAR: KCMA 212355Z 24007KT 10SM CLR 28/15 A3003 RMK AO2 SLP175 T02830150 10300 20261 56008
TAF: KCMA 212336Z 2200/2224 27008KT P6SM SKC FM220400 VRB03KT 6SM BR OVC007 FM221200 VRB03KT 1SM BR OVC003 FM221500 VRB03KT 4SM BR BKN006 FM221630 VRB03KT P6SM SKC
Voir NOTAMs / SUP AIP / TFR affectant cet aéroport [VIEW]
Fréquences de communication: [VIEW]

Pistes:

Coordonnées de l'aéroport

Adresse: Moorpark United States

Vue satellite de 82CA